メインページ
METAR-TAF:

METAR-TAF

空港 :

カムループス, ブリティッシュコロンビア州, カナダ

緯度: 50-42N, 経度: 120-27W, 海抜: 345m

現時点の気象観測

当レポートは31分前の18:00(UTC)に作成
東/南東の風 7kt
気温 8°C
湿度 76%
気圧 1012 hPa
視程: 64.4km
高度2000ftの雲はほとんどない
高度5000ftの雲はほとんどない
高度11000ftの千切れ雲あり
高度16000ftの千切れ雲あり

METAR: CYKA 171800Z 12007KT 40SM FEW020 FEW050 BKN110 BKN160 08/04 A2989 RMK SC1SC1AC3AC2 SLP135

時間: 10:31 (18:31 UTC)

予報

当レポートは5時間53分前の12:38(UTC)に作成
予報は17日の 13時(UTC)から 18日の 01時(UTC)まで有効
の風 15kt、最大25ktの突風を伴う
視程: 10km
高度4000ftの雲はほとんどない
高度8000ftの千切れ雲あり
高度20000ftの曇り
17日の 13時(UTC)から 17日の 15時(UTC)まで徐々に
の風 12kt
17日の 1700時(UTC)から
の風 12kt
視程: 10km
高度8000ftの雲はほとんどない

TAF: CYKA 171238Z 1713/1801 09015G25KT P6SM FEW040 BKN080 OVC200 BECMG 1713/1715 09012KT FM171700 09012KT P6SM FEW080 RMK NXT FCST BY 171900Z

4,000以上の空港の気象観測と天気予報(METAR報とTAF報)

利用可能な観測所は地図上に黄色い丸と赤い丸で示す。

丸の上にカーソルを重ねると観測所名を参照できる。

次にクリックすると気象観測と天気予報を参照できる。

マップの切り替え:黒色「×」印の緑ボタンをクリックして拡大、「-」印の緑ボタンをクリックして縮小、緑色の三角印をクリックして隣りの地図に切り替え


METAR-TAF: